createdAt,value
2023-05-10T00:02:20.783Z,90.10
2023-05-10T00:04:49.067Z,89.92
2023-05-10T00:07:18.777Z,89.69
2023-05-10T00:09:47.085Z,89.59
2023-05-10T00:12:15.676Z,90.17
2023-05-10T00:14:44.060Z,90.35
2023-05-10T00:17:12.459Z,90.21
2023-05-10T00:19:40.871Z,90.09
2023-05-10T00:22:09.342Z,90.17
2023-05-10T00:24:37.824Z,90.41
2023-05-10T00:27:06.424Z,90.47
2023-05-10T00:29:34.977Z,90.32
2023-05-10T00:32:03.680Z,90.56
2023-05-10T00:34:32.109Z,90.70
2023-05-10T00:37:00.502Z,90.30
2023-05-10T00:39:29.721Z,90.17
2023-05-10T00:41:58.293Z,90.12
2023-05-10T00:44:28.745Z,89.18
2023-05-10T00:46:57.385Z,89.41
2023-05-10T00:49:26.502Z,89.74
2023-05-10T00:51:55.220Z,89.48
2023-05-10T00:54:23.894Z,89.22
2023-05-10T00:56:53.082Z,89.30
2023-05-10T00:59:22.488Z,88.99
2023-05-10T01:01:52.723Z,88.75
2023-05-10T01:04:26.642Z,87.85
2023-05-10T01:06:55.512Z,88.95
2023-05-10T01:09:26.254Z,89.26
2023-05-10T01:11:56.249Z,89.32
2023-05-10T01:14:26.452Z,89.51
2023-05-10T01:16:56.188Z,89.89
2023-05-10T01:19:27.547Z,89.88
2023-05-10T01:22:14.121Z,90.07
2023-05-10T01:25:04.285Z,89.97
2023-05-10T01:27:43.916Z,89.97
2023-05-10T01:30:40.657Z,90.18
2023-05-10T01:33:29.907Z,90.24
2023-05-10T01:36:15.123Z,90.01
2023-05-10T01:39:07.730Z,89.90
2023-05-10T01:41:54.990Z,90.10
2023-05-10T01:44:38.882Z,90.27
2023-05-10T01:47:15.623Z,90.23
2023-05-10T01:49:51.152Z,90.28
2023-05-10T01:52:23.649Z,89.90
2023-05-10T01:55:04.259Z,90.33
2023-05-10T01:57:38.879Z,90.35
2023-05-10T02:00:09.650Z,90.25
2023-05-10T02:02:47.229Z,90.53
2023-05-10T02:05:17.570Z,89.58
2023-05-10T02:07:46.813Z,89.87
2023-05-10T02:10:17.315Z,89.73
2023-05-10T02:12:48.696Z,89.54
2023-05-10T02:15:22.641Z,89.76
2023-05-10T02:17:51.461Z,89.82
2023-05-10T02:20:22.165Z,89.42
2023-05-10T02:22:52.799Z,89.19
2023-05-10T02:25:23.060Z,89.61
2023-05-10T02:27:54.653Z,89.95
2023-05-10T02:30:24.550Z,90.07
2023-05-10T02:32:54.182Z,90.06
2023-05-10T02:35:24.725Z,90.18
2023-05-10T02:37:54.880Z,90.20
2023-05-10T02:40:26.851Z,90.33
2023-05-10T02:43:00.402Z,90.35
2023-05-10T02:45:31.707Z,90.19
2023-05-10T02:48:00.718Z,90.11
2023-05-10T02:50:31.373Z,90.23
2023-05-10T02:53:12.741Z,90.16
2023-05-10T02:55:47.749Z,90.00
2023-05-10T02:58:16.320Z,90.09
2023-05-10T03:00:44.773Z,90.13
2023-05-10T03:03:13.681Z,90.03
2023-05-10T03:05:42.819Z,89.97
2023-05-10T03:08:11.658Z,89.98
2023-05-10T03:11:03.883Z,89.89
2023-05-10T03:14:08.160Z,89.92
2023-05-10T03:16:52.361Z,90.03
2023-05-10T03:19:27.091Z,90.02
2023-05-10T03:22:00.383Z,89.68
2023-05-10T03:24:30.103Z,90.12
2023-05-10T03:27:04.153Z,90.24
2023-05-10T03:29:33.484Z,90.35
2023-05-10T03:32:02.185Z,90.48
2023-05-10T03:34:35.123Z,90.54
2023-05-10T03:37:03.528Z,90.72
2023-05-10T03:39:33.246Z,90.64
2023-05-10T03:42:02.138Z,90.65
2023-05-10T03:44:34.489Z,90.63
2023-05-10T03:47:03.386Z,90.87
2023-05-10T03:49:32.076Z,90.89
2023-05-10T03:52:01.292Z,91.16
2023-05-10T03:54:29.644Z,91.23
2023-05-10T03:56:58.142Z,91.33
2023-05-10T03:59:26.826Z,91.26
2023-05-10T04:01:55.293Z,91.47
2023-05-10T04:04:24.513Z,91.48
2023-05-10T04:06:52.951Z,91.54
2023-05-10T04:09:21.542Z,91.66
2023-05-10T04:11:50.034Z,91.80
2023-05-10T04:14:18.576Z,91.92
2023-05-10T04:16:47.209Z,91.16
2023-05-10T04:19:15.785Z,91.48
2023-05-10T04:21:44.296Z,91.82
2023-05-10T04:24:13.590Z,91.83
2023-05-10T04:26:43.225Z,91.88
2023-05-10T04:29:11.583Z,91.85
2023-05-10T04:31:40.358Z,92.02
2023-05-10T04:34:09.182Z,91.93
2023-05-10T04:36:37.851Z,91.87
2023-05-10T04:39:06.264Z,91.88
2023-05-10T04:41:34.884Z,92.01
2023-05-10T04:44:03.181Z,91.57
2023-05-10T04:46:31.606Z,91.33
2023-05-10T04:49:00.181Z,91.21
2023-05-10T04:51:28.519Z,91.42
2023-05-10T04:54:05.218Z,91.84
2023-05-10T04:56:35.253Z,91.54
2023-05-10T04:59:03.738Z,91.53
2023-05-10T05:01:32.123Z,91.59
2023-05-10T05:04:00.891Z,91.95
2023-05-10T05:06:29.519Z,92.01
2023-05-10T05:08:57.912Z,92.18
2023-05-10T05:11:27.042Z,92.07
2023-05-10T05:13:55.552Z,92.18
2023-05-10T05:16:23.909Z,92.37
2023-05-10T05:18:52.605Z,92.20
2023-05-10T05:21:21.563Z,92.51
2023-05-10T05:23:50.175Z,92.54
2023-05-10T05:26:18.645Z,92.66
2023-05-10T05:28:47.178Z,92.96
2023-05-10T05:31:16.039Z,92.73
2023-05-10T05:33:44.659Z,92.67
2023-05-10T05:36:12.987Z,92.47
2023-05-10T05:38:41.497Z,91.81
2023-05-10T05:41:12.657Z,92.01
2023-05-10T05:43:43.247Z,92.48
2023-05-10T05:46:11.660Z,92.13
2023-05-10T05:48:40.112Z,92.48
2023-05-10T05:54:48.432Z,92.67
2023-05-10T05:57:20.007Z,92.79
2023-05-10T05:59:48.530Z,92.81
2023-05-10T06:02:16.933Z,92.85
2023-05-10T06:04:47.752Z,92.59
2023-05-10T06:07:18.402Z,92.90
2023-05-10T06:09:46.905Z,92.65
2023-05-10T06:12:15.228Z,92.06
2023-05-10T06:14:43.736Z,92.68
2023-05-10T06:17:12.163Z,92.43
2023-05-10T06:19:40.731Z,92.61
2023-05-10T06:22:09.309Z,92.74
2023-05-10T06:24:38.564Z,90.93
2023-05-10T06:27:07.843Z,91.54
2023-05-10T06:29:36.649Z,92.31
2023-05-10T06:32:05.133Z,92.53
2023-05-10T06:34:33.518Z,92.91
2023-05-10T06:37:01.896Z,93.00
2023-05-10T06:39:30.565Z,93.22
2023-05-10T06:41:58.945Z,93.36
2023-05-10T06:44:30.582Z,93.57
2023-05-10T06:46:58.992Z,93.29
2023-05-10T06:49:27.474Z,93.54
2023-05-10T06:51:57.237Z,93.38
2023-05-10T06:54:25.764Z,93.59
2023-05-10T06:56:54.618Z,92.91
2023-05-10T06:59:22.887Z,90.11
2023-05-10T07:01:51.586Z,92.91
2023-05-10T07:04:19.968Z,93.40
2023-05-10T07:06:48.603Z,93.56
2023-05-10T07:09:17.067Z,93.75
2023-05-10T07:11:45.398Z,93.41
2023-05-10T07:14:13.884Z,93.76
2023-05-10T07:16:42.534Z,93.50
2023-05-10T07:19:11.535Z,92.93
2023-05-10T07:21:41.536Z,93.47
2023-05-10T07:24:10.289Z,92.61
2023-05-10T07:26:38.606Z,91.40
2023-05-10T07:29:07.652Z,91.95
2023-05-10T07:31:36.186Z,89.82
2023-05-10T07:34:04.677Z,88.43
2023-05-10T07:36:33.600Z,80.35
2023-05-10T07:39:02.300Z,84.41
2023-05-10T07:41:31.122Z,82.09
2023-05-10T07:43:59.580Z,77.22
2023-05-10T07:46:28.715Z,65.74
2023-05-10T07:48:57.418Z,75.41
2023-05-10T07:51:25.748Z,73.33
2023-05-10T07:53:54.227Z,77.84
2023-05-10T07:56:30.776Z,81.01
2023-05-10T07:59:00.358Z,72.35
2023-05-10T08:01:33.797Z,70.83
2023-05-10T08:04:03.718Z,74.56
2023-05-10T08:06:32.761Z,78.86
2023-05-10T08:09:01.827Z,71.82
2023-05-10T08:11:30.252Z,75.69
2023-05-10T08:13:58.925Z,77.55
2023-05-10T08:16:27.534Z,74.22
2023-05-10T08:18:56.647Z,59.56
2023-05-10T08:21:25.201Z,62.29
2023-05-10T08:23:53.721Z,65.35
2023-05-10T08:26:22.806Z,70.67
2023-05-10T08:28:51.210Z,77.99
2023-05-10T08:31:19.842Z,72.63
2023-05-10T08:33:48.623Z,77.80
2023-05-10T08:36:20.898Z,74.43
2023-05-10T08:38:53.308Z,68.45
2023-05-10T08:41:22.858Z,68.01
2023-05-10T08:43:52.382Z,68.06
2023-05-10T08:46:22.748Z,75.12
2023-05-10T08:48:55.456Z,72.07
2023-05-10T08:51:29.167Z,75.13
2023-05-10T08:53:58.319Z,81.19
2023-05-10T08:56:27.475Z,81.58
2023-05-10T08:58:56.270Z,78.80
2023-05-10T09:01:25.716Z,82.28
2023-05-10T09:03:54.516Z,80.30
2023-05-10T09:06:23.182Z,59.68
2023-05-10T09:08:53.030Z,67.28
2023-05-10T09:11:22.628Z,71.69
2023-05-10T09:13:53.661Z,70.54
2023-05-10T09:16:22.746Z,75.31
2023-05-10T09:18:51.503Z,76.37
2023-05-10T09:21:21.819Z,71.65
2023-05-10T09:23:51.433Z,68.45
2023-05-10T09:26:24.858Z,60.76
2023-05-10T09:28:55.734Z,60.99
2023-05-10T09:31:26.239Z,68.34
2023-05-10T09:33:55.116Z,65.82
2023-05-10T09:36:23.634Z,57.74
2023-05-10T09:38:55.008Z,73.44
2023-05-10T09:41:24.494Z,59.04
2023-05-10T09:43:57.986Z,68.75
2023-05-10T09:46:27.208Z,71.93
2023-05-10T09:48:55.663Z,65.04
2023-05-10T09:51:28.036Z,65.36
2023-05-10T09:54:16.146Z,67.76
2023-05-10T09:56:44.441Z,64.62
2023-05-10T09:59:14.242Z,69.33
2023-05-10T10:01:42.716Z,61.22
2023-05-10T10:04:11.391Z,61.98
2023-05-10T10:06:41.060Z,69.08
2023-05-10T10:09:10.357Z,69.64
2023-05-10T10:11:39.957Z,74.53
2023-05-10T10:14:08.543Z,71.37
2023-05-10T10:16:41.459Z,76.90
2023-05-10T10:19:14.656Z,78.34
2023-05-10T10:21:43.159Z,75.42
2023-05-10T10:24:11.556Z,77.82
2023-05-10T10:26:43.911Z,75.50
2023-05-10T10:29:36.622Z,79.52
2023-05-10T10:32:28.700Z,69.41
2023-05-10T10:34:57.766Z,75.58
2023-05-10T10:37:45.479Z,68.56
2023-05-10T10:40:35.062Z,70.35
2023-05-10T10:43:23.289Z,67.67
2023-05-10T10:46:15.864Z,55.58
2023-05-10T10:49:11.516Z,55.51
2023-05-10T10:51:40.845Z,51.55
2023-05-10T10:54:12.884Z,51.83
2023-05-10T10:56:41.571Z,61.82
2023-05-10T10:59:10.153Z,67.17
2023-05-10T11:01:45.797Z,66.43
2023-05-10T11:04:14.796Z,66.78
2023-05-10T11:06:43.886Z,64.49
2023-05-10T11:09:13.739Z,62.84
2023-05-10T11:11:59.618Z,65.00
2023-05-10T11:14:28.098Z,55.93
2023-05-10T11:16:56.622Z,71.74
2023-05-10T11:19:29.179Z,73.59
2023-05-10T11:22:06.660Z,75.92
2023-05-10T11:24:36.903Z,71.91
2023-05-10T11:27:05.512Z,63.72
2023-05-10T11:29:33.994Z,65.20
2023-05-10T11:32:02.695Z,67.07
2023-05-10T11:34:34.994Z,66.15
2023-05-10T11:37:03.681Z,69.07
2023-05-10T11:39:33.035Z,62.98
2023-05-10T11:42:02.226Z,67.15
2023-05-10T11:44:32.848Z,53.45
2023-05-10T11:47:04.816Z,44.03
2023-05-10T11:49:33.494Z,49.84
2023-05-10T11:52:07.362Z,52.79
2023-05-10T11:54:38.409Z,53.10
2023-05-10T11:57:06.857Z,54.65
2023-05-10T11:59:35.282Z,55.62
2023-05-10T12:02:04.653Z,57.87
2023-05-10T12:04:33.417Z,57.56
2023-05-10T12:07:02.401Z,58.22
2023-05-10T12:09:43.177Z,57.98
2023-05-10T12:12:21.656Z,57.05
2023-05-10T12:14:52.172Z,58.70
2023-05-10T12:17:20.560Z,55.15
2023-05-10T12:19:48.997Z,54.10
2023-05-10T12:22:22.200Z,52.64
2023-05-10T12:24:51.727Z,53.83
2023-05-10T12:27:23.284Z,53.44
2023-05-10T12:29:51.959Z,54.53
2023-05-10T12:32:20.926Z,56.41
2023-05-10T12:34:49.394Z,56.48
2023-05-10T12:37:18.196Z,55.37
2023-05-10T12:39:47.373Z,56.96
2023-05-10T12:42:15.888Z,51.92
2023-05-10T12:44:44.291Z,51.82
2023-05-10T12:47:12.639Z,53.40
2023-05-10T12:49:40.931Z,54.20
2023-05-10T12:52:09.429Z,53.35
2023-05-10T12:54:37.910Z,50.53
2023-05-10T12:57:06.373Z,53.64
2023-05-10T12:59:36.753Z,43.62
2023-05-10T13:02:07.448Z,50.03
2023-05-10T13:04:36.018Z,51.09
2023-05-10T13:07:04.580Z,53.18
2023-05-10T13:09:33.040Z,50.38
2023-05-10T13:12:01.621Z,46.51
2023-05-10T13:18:10.245Z,47.51
2023-05-10T13:20:38.892Z,46.51
2023-05-10T13:23:07.334Z,43.64
2023-05-10T13:25:35.926Z,47.48
2023-05-10T13:28:04.402Z,46.57
2023-05-10T13:30:32.898Z,45.04
2023-05-10T13:33:01.484Z,47.53
2023-05-10T13:35:29.965Z,44.61
2023-05-10T13:37:59.078Z,40.13
2023-05-10T13:40:27.669Z,41.55
2023-05-10T13:42:56.203Z,42.67
2023-05-10T13:45:24.646Z,42.67
2023-05-10T13:47:53.332Z,34.44
2023-05-10T13:50:21.773Z,38.35
2023-05-10T13:52:50.179Z,40.91
2023-05-10T13:55:18.677Z,39.86
2023-05-10T13:57:47.602Z,40.74
2023-05-10T14:00:16.466Z,40.28
2023-05-10T14:02:44.919Z,35.27
2023-05-10T14:05:14.020Z,39.59
2023-05-10T14:07:42.593Z,39.34
2023-05-10T14:10:11.386Z,41.22
2023-05-10T14:12:39.928Z,37.71
2023-05-10T14:15:08.984Z,40.33
2023-05-10T14:17:37.561Z,41.18
2023-05-10T14:20:06.954Z,41.34
2023-05-10T14:22:36.606Z,40.32
2023-05-10T14:25:05.208Z,38.67
2023-05-10T14:27:33.820Z,39.86
2023-05-10T14:30:02.501Z,40.17
2023-05-10T14:32:33.230Z,37.62
2023-05-10T14:35:02.244Z,35.51
2023-05-10T14:37:31.309Z,36.24
2023-05-10T14:39:59.872Z,33.21
2023-05-10T14:42:29.989Z,35.86
2023-05-10T14:44:59.523Z,39.92
2023-05-10T14:47:31.552Z,38.65
2023-05-10T14:50:00.469Z,40.87
2023-05-10T14:52:28.995Z,36.05
2023-05-10T14:54:58.383Z,32.97
2023-05-10T14:57:27.061Z,34.79
2023-05-10T14:59:55.454Z,40.80
2023-05-10T15:02:27.997Z,37.72
2023-05-10T15:04:58.716Z,36.27
2023-05-10T15:07:27.975Z,36.69
2023-05-10T15:09:56.656Z,39.13
2023-05-10T15:12:25.187Z,40.66
2023-05-10T15:14:53.665Z,37.47
2023-05-10T15:17:22.142Z,37.32
2023-05-10T15:19:51.461Z,40.51
2023-05-10T15:22:19.984Z,39.81
2023-05-10T15:24:48.280Z,42.61
2023-05-10T15:27:16.821Z,38.92
2023-05-10T15:29:45.066Z,36.02
2023-05-10T15:32:13.595Z,42.41
2023-05-10T15:34:42.200Z,42.75
2023-05-10T15:37:11.220Z,40.75
2023-05-10T15:39:39.616Z,41.86
2023-05-10T15:42:08.363Z,41.39
2023-05-10T15:44:39.424Z,41.38
2023-05-10T15:47:08.002Z,40.51
2023-05-10T15:49:36.511Z,42.92
2023-05-10T15:52:04.974Z,40.50
2023-05-10T15:54:33.298Z,40.35
2023-05-10T15:57:02.128Z,41.09
2023-05-10T15:59:30.750Z,40.53
2023-05-10T16:01:59.215Z,39.12
2023-05-10T16:04:27.777Z,39.97
2023-05-10T16:06:56.158Z,36.04
2023-05-10T16:09:24.560Z,36.71
2023-05-10T16:11:52.970Z,37.31
2023-05-10T16:14:24.876Z,37.66
2023-05-10T16:16:53.504Z,35.84
2023-05-10T16:19:22.803Z,35.39
2023-05-10T16:21:51.465Z,37.10
2023-05-10T16:24:19.873Z,38.34
2023-05-10T16:26:48.344Z,37.34
2023-05-10T16:29:17.257Z,39.42
2023-05-10T16:31:46.657Z,39.38
2023-05-10T16:34:15.234Z,36.11
2023-05-10T16:36:44.247Z,38.13
2023-05-10T16:39:12.597Z,38.69
2023-05-10T16:41:41.076Z,37.85
2023-05-10T16:44:09.565Z,38.33
2023-05-10T16:46:38.319Z,38.90
2023-05-10T16:49:06.973Z,37.66
2023-05-10T16:51:35.502Z,38.85
2023-05-10T16:54:04.119Z,37.80
2023-05-10T16:56:33.215Z,39.06
2023-05-10T16:59:01.729Z,40.30
2023-05-10T17:01:30.294Z,39.43
2023-05-10T17:03:58.947Z,41.03
2023-05-10T17:06:27.593Z,42.31
2023-05-10T17:08:59.045Z,43.81
2023-05-10T17:11:27.687Z,44.39
2023-05-10T17:13:56.134Z,42.09
2023-05-10T17:16:24.771Z,39.27
2023-05-10T17:18:55.168Z,41.25
2023-05-10T17:21:24.092Z,40.71
2023-05-10T17:23:52.395Z,42.43
2023-05-10T17:26:20.792Z,43.56
2023-05-10T17:28:54.247Z,41.83
2023-05-10T17:31:22.702Z,43.87
2023-05-10T17:33:51.243Z,43.06
2023-05-10T17:36:19.916Z,43.46
2023-05-10T17:38:48.517Z,43.71
2023-05-10T17:41:17.244Z,44.40
2023-05-10T17:43:45.764Z,44.87
2023-05-10T17:46:14.146Z,46.12
2023-05-10T17:48:42.848Z,46.86
2023-05-10T17:51:14.086Z,47.73
2023-05-10T17:53:43.803Z,46.68
2023-05-10T17:56:12.184Z,48.73
2023-05-10T17:58:40.708Z,48.57
2023-05-10T18:01:09.226Z,49.20
2023-05-10T18:03:37.792Z,49.21
2023-05-10T18:06:06.486Z,50.07
2023-05-10T18:08:34.923Z,50.56
2023-05-10T18:11:03.247Z,51.62
2023-05-10T18:13:32.344Z,52.75
2023-05-10T18:16:00.856Z,53.57
2023-05-10T18:18:29.452Z,53.58
2023-05-10T18:20:58.553Z,53.79
2023-05-10T18:23:27.232Z,53.98
2023-05-10T18:25:55.857Z,54.14
2023-05-10T18:28:27.070Z,54.38
2023-05-10T18:30:55.612Z,54.52
2023-05-10T18:33:25.328Z,54.77
2023-05-10T18:35:54.116Z,55.07
2023-05-10T18:38:22.758Z,55.27
2023-05-10T18:40:51.334Z,55.48
2023-05-10T18:43:19.823Z,55.76
2023-05-10T18:45:48.251Z,56.52
2023-05-10T18:48:17.050Z,57.06
2023-05-10T18:50:50.779Z,57.00
2023-05-10T18:53:19.218Z,57.55
2023-05-10T18:55:47.639Z,57.51
2023-05-10T18:58:16.263Z,57.70
2023-05-10T19:00:44.573Z,58.11
2023-05-10T19:03:13.031Z,58.51
2023-05-10T19:05:41.445Z,58.81
2023-05-10T19:08:09.823Z,59.21
2023-05-10T19:10:38.196Z,59.71
2023-05-10T19:13:06.625Z,59.42
2023-05-10T19:15:34.954Z,59.67
2023-05-10T19:18:05.081Z,60.03
2023-05-10T19:20:34.009Z,60.00
2023-05-10T19:25:37.555Z,60.30
2023-05-10T19:28:06.251Z,61.24
2023-05-10T19:34:17.184Z,61.91
2023-05-10T19:36:45.900Z,62.01
2023-05-10T19:39:14.235Z,61.84
2023-05-10T19:41:42.610Z,61.70
2023-05-10T19:44:11.180Z,61.73
2023-05-10T19:46:39.822Z,61.71
2023-05-10T19:49:08.252Z,62.06
2023-05-10T19:51:36.770Z,62.24
2023-05-10T19:54:05.415Z,62.47
2023-05-10T19:56:34.088Z,62.51
2023-05-10T19:59:03.966Z,62.49
2023-05-10T20:01:33.107Z,62.56
2023-05-10T20:04:03.625Z,62.94
2023-05-10T20:06:32.139Z,63.34
2023-05-10T20:09:00.690Z,63.61
2023-05-10T20:11:30.882Z,63.74
2023-05-10T20:13:59.596Z,63.87
2023-05-10T20:16:28.075Z,64.31
2023-05-10T20:18:56.773Z,64.81
2023-05-10T20:21:33.592Z,65.67
2023-05-10T20:24:01.931Z,65.80
2023-05-10T20:26:30.318Z,66.10
2023-05-10T20:28:58.649Z,66.35
2023-05-10T20:31:26.984Z,66.13
2023-05-10T20:33:55.225Z,66.04
2023-05-10T20:36:23.623Z,66.22
2023-05-10T20:38:51.971Z,66.37
2023-05-10T20:41:20.329Z,66.45
2023-05-10T20:43:48.728Z,66.37
2023-05-10T20:46:17.321Z,66.29
2023-05-10T20:48:49.748Z,66.26
2023-05-10T20:51:18.886Z,66.50
2023-05-10T20:53:47.242Z,66.78
2023-05-10T20:56:15.681Z,66.80
2023-05-10T20:58:44.323Z,66.86
2023-05-10T21:01:12.696Z,67.14
2023-05-10T21:03:41.229Z,67.24
2023-05-10T21:06:09.622Z,67.57
2023-05-10T21:08:37.961Z,67.48
2023-05-10T21:11:06.149Z,67.64
2023-05-10T21:13:34.622Z,67.46
2023-05-10T21:16:03.063Z,67.35
2023-05-10T21:18:31.600Z,67.37
2023-05-10T21:21:00.074Z,68.06
2023-05-10T21:23:28.473Z,67.98
2023-05-10T21:25:56.803Z,68.12
2023-05-10T21:28:25.236Z,69.25
2023-05-10T21:30:53.730Z,69.54
2023-05-10T21:33:22.126Z,69.11
2023-05-10T21:35:50.660Z,68.87
2023-05-10T21:38:18.949Z,69.20
2023-05-10T21:40:47.308Z,69.66
2023-05-10T21:43:15.698Z,69.49
2023-05-10T21:45:44.144Z,69.48
2023-05-10T21:48:13.490Z,69.56
2023-05-10T21:50:43.997Z,69.24
2023-05-10T21:53:12.650Z,69.11
2023-05-10T21:55:41.508Z,69.23
2023-05-10T21:58:09.911Z,69.05
2023-05-10T22:00:38.424Z,69.16
2023-05-10T22:03:06.994Z,69.12
2023-05-10T22:05:35.812Z,68.96
2023-05-10T22:08:05.248Z,68.63
2023-05-10T22:10:34.187Z,68.45
2023-05-10T22:13:02.833Z,68.39
2023-05-10T22:15:34.180Z,68.18
2023-05-10T22:18:04.312Z,68.62
2023-05-10T22:20:33.806Z,68.99
2023-05-10T22:23:02.521Z,68.98
2023-05-10T22:25:31.121Z,69.38
2023-05-10T22:27:59.623Z,69.46
2023-05-10T22:30:28.149Z,69.28
2023-05-10T22:32:59.646Z,68.96
2023-05-10T22:35:28.062Z,68.91
2023-05-10T22:37:56.534Z,68.75
2023-05-10T22:40:25.411Z,69.04
2023-05-10T22:42:54.041Z,69.58
2023-05-10T22:45:22.490Z,69.60
2023-05-10T22:47:50.957Z,69.48
2023-05-10T22:50:20.246Z,69.56
2023-05-10T22:52:48.996Z,70.37
2023-05-10T22:55:18.777Z,70.25
2023-05-10T22:57:52.028Z,70.07
2023-05-10T23:00:20.707Z,70.09
2023-05-10T23:02:49.604Z,70.42
2023-05-10T23:05:18.440Z,70.61
2023-05-10T23:07:53.025Z,70.45
2023-05-10T23:10:21.757Z,70.41
2023-05-10T23:12:50.102Z,70.43
2023-05-10T23:15:18.950Z,70.35
2023-05-10T23:17:47.955Z,70.29
2023-05-10T23:20:16.717Z,70.39
2023-05-10T23:22:45.406Z,70.61
2023-05-10T23:25:13.828Z,70.87
2023-05-10T23:27:42.219Z,71.03
2023-05-10T23:30:11.115Z,71.62
2023-05-10T23:32:39.571Z,71.78
2023-05-10T23:35:08.804Z,71.51
2023-05-10T23:37:37.343Z,71.51
2023-05-10T23:40:06.536Z,71.71
2023-05-10T23:42:35.235Z,71.98
2023-05-10T23:45:04.988Z,72.21
2023-05-10T23:47:33.524Z,72.40
2023-05-10T23:50:02.968Z,72.18
2023-05-10T23:52:31.662Z,72.33
2023-05-10T23:55:00.205Z,72.39
2023-05-10T23:57:29.015Z,73.03
